sensor_id;sensor_type;location;lat;lon;timestamp;pressure;altitude;pressure_sealevel;temperature;humidity
13974;BME280;7060;43.770;4.008;2023-08-24T00:00:06;100942.94;;;24.86;52.99
13974;BME280;7060;43.770;4.008;2023-08-24T00:02:35;100941.13;;;24.80;53.12
13974;BME280;7060;43.770;4.008;2023-08-24T00:05:05;100941.38;;;24.78;53.41
13974;BME280;7060;43.770;4.008;2023-08-24T00:07:35;100941.72;;;24.70;53.70
13974;BME280;7060;43.770;4.008;2023-08-24T00:10:05;100930.50;;;24.60;53.90
13974;BME280;7060;43.770;4.008;2023-08-24T00:12:34;100924.50;;;24.51;54.00
13974;BME280;7060;43.770;4.008;2023-08-24T00:15:07;100928.66;;;24.42;54.06
13974;BME280;7060;43.770;4.008;2023-08-24T00:17:37;100924.72;;;24.38;54.26
13974;BME280;7060;43.770;4.008;2023-08-24T00:20:07;100930.31;;;24.43;54.16
13974;BME280;7060;43.770;4.008;2023-08-24T00:22:39;100914.16;;;24.42;53.85
13974;BME280;7060;43.770;4.008;2023-08-24T00:25:09;100923.75;;;24.44;54.23
13974;BME280;7060;43.770;4.008;2023-08-24T00:27:38;100928.66;;;24.42;54.22
13974;BME280;7060;43.770;4.008;2023-08-24T00:30:08;100919.47;;;24.37;54.07
13974;BME280;7060;43.770;4.008;2023-08-24T00:32:37;100920.63;;;24.29;54.41
13974;BME280;7060;43.770;4.008;2023-08-24T00:35:08;100919.88;;;24.22;54.58
13974;BME280;7060;43.770;4.008;2023-08-24T00:41:53;100922.22;;;24.07;55.18
13974;BME280;7060;43.770;4.008;2023-08-24T00:44:22;100918.22;;;24.21;54.74
13974;BME280;7060;43.770;4.008;2023-08-24T00:46:51;100912.91;;;24.26;54.43
13974;BME280;7060;43.770;4.008;2023-08-24T00:49:21;100918.38;;;24.26;54.24
13974;BME280;7060;43.770;4.008;2023-08-24T00:56:24;100920.47;;;24.12;54.34
13974;BME280;7060;43.770;4.008;2023-08-24T00:58:55;100915.81;;;24.13;54.54
13974;BME280;7060;43.770;4.008;2023-08-24T01:01:24;100919.94;;;24.04;55.04
13974;BME280;7060;43.770;4.008;2023-08-24T01:03:53;100922.97;;;23.95;55.31
13974;BME280;7060;43.770;4.008;2023-08-24T01:06:22;100913.19;;;23.88;55.46
13974;BME280;7060;43.770;4.008;2023-08-24T01:08:51;100925.00;;;23.82;55.56
13974;BME280;7060;43.770;4.008;2023-08-24T01:11:31;100923.78;;;23.78;56.04
13974;BME280;7060;43.770;4.008;2023-08-24T01:14:09;100924.63;;;23.78;56.01
13974;BME280;7060;43.770;4.008;2023-08-24T01:16:45;100924.56;;;23.85;55.89
13974;BME280;7060;43.770;4.008;2023-08-24T01:19:25;100923.94;;;23.83;55.45
13974;BME280;7060;43.770;4.008;2023-08-24T01:21:57;100912.41;;;23.81;55.59
13974;BME280;7060;43.770;4.008;2023-08-24T01:24:35;100918.34;;;23.78;56.13
13974;BME280;7060;43.770;4.008;2023-08-24T01:27:08;100918.41;;;23.71;56.32
13974;BME280;7060;43.770;4.008;2023-08-24T01:29:41;100922.25;;;23.63;56.37
13974;BME280;7060;43.770;4.008;2023-08-24T01:32:10;100919.41;;;23.58;56.45
13974;BME280;7060;43.770;4.008;2023-08-24T01:34:39;100927.38;;;23.60;56.64
13974;BME280;7060;43.770;4.008;2023-08-24T01:37:08;100933.19;;;23.63;56.08
13974;BME280;7060;43.770;4.008;2023-08-24T01:39:42;100937.34;;;23.66;56.15
13974;BME280;7060;43.770;4.008;2023-08-24T01:42:19;100927.50;;;23.65;55.72
13974;BME280;7060;43.770;4.008;2023-08-24T01:44:51;100921.69;;;23.61;55.98
13974;BME280;7060;43.770;4.008;2023-08-24T01:47:21;100925.47;;;23.60;56.05
13974;BME280;7060;43.770;4.008;2023-08-24T01:49:52;100918.19;;;23.54;56.70
13974;BME280;7060;43.770;4.008;2023-08-24T01:52:23;100921.66;;;23.43;57.33
13974;BME280;7060;43.770;4.008;2023-08-24T01:54:52;100925.97;;;23.33;57.43
13974;BME280;7060;43.770;4.008;2023-08-24T01:57:23;100930.22;;;23.28;57.46
13974;BME280;7060;43.770;4.008;2023-08-24T01:59:52;100922.66;;;23.24;57.86
13974;BME280;7060;43.770;4.008;2023-08-24T02:02:21;100926.44;;;23.23;57.58
13974;BME280;7060;43.770;4.008;2023-08-24T02:04:50;100915.53;;;23.23;57.64
13974;BME280;7060;43.770;4.008;2023-08-24T02:07:19;100918.47;;;23.21;57.67
13974;BME280;7060;43.770;4.008;2023-08-24T02:09:48;100914.53;;;23.17;57.95
13974;BME280;7060;43.770;4.008;2023-08-24T02:12:17;100912.63;;;23.24;57.68
13974;BME280;7060;43.770;4.008;2023-08-24T02:14:47;100908.16;;;23.30;56.84
13974;BME280;7060;43.770;4.008;2023-08-24T02:17:16;100914.22;;;23.32;56.76
13974;BME280;7060;43.770;4.008;2023-08-24T02:19:45;100916.34;;;23.30;56.38
13974;BME280;7060;43.770;4.008;2023-08-24T02:22:14;100909.22;;;23.29;56.81
13974;BME280;7060;43.770;4.008;2023-08-24T02:24:43;100902.09;;;23.28;56.22
13974;BME280;7060;43.770;4.008;2023-08-24T02:27:12;100890.81;;;23.18;56.16
13974;BME280;7060;43.770;4.008;2023-08-24T02:29:42;100874.81;;;23.03;56.89
13974;BME280;7060;43.770;4.008;2023-08-24T02:32:16;100884.19;;;23.07;57.33
13974;BME280;7060;43.770;4.008;2023-08-24T02:34:45;100895.03;;;22.95;57.50
13974;BME280;7060;43.770;4.008;2023-08-24T02:37:14;100892.56;;;22.87;58.00
13974;BME280;7060;43.770;4.008;2023-08-24T02:39:43;100881.50;;;22.82;58.04
13974;BME280;7060;43.770;4.008;2023-08-24T02:42:11;100879.47;;;22.78;58.33
13974;BME280;7060;43.770;4.008;2023-08-24T02:44:40;100883.47;;;22.75;58.54
13974;BME280;7060;43.770;4.008;2023-08-24T02:47:11;100885.56;;;22.73;58.46
13974;BME280;7060;43.770;4.008;2023-08-24T02:49:41;100885.56;;;22.73;58.77
13974;BME280;7060;43.770;4.008;2023-08-24T02:52:10;100882.84;;;22.73;58.89
13974;BME280;7060;43.770;4.008;2023-08-24T02:54:39;100887.28;;;22.68;58.69
13974;BME280;7060;43.770;4.008;2023-08-24T02:57:08;100878.53;;;22.59;59.16
13974;BME280;7060;43.770;4.008;2023-08-24T02:59:37;100875.41;;;22.55;58.96
13974;BME280;7060;43.770;4.008;2023-08-24T03:02:07;100870.19;;;22.54;58.91
13974;BME280;7060;43.770;4.008;2023-08-24T03:04:36;100870.63;;;22.51;58.93
13974;BME280;7060;43.770;4.008;2023-08-24T03:07:07;100879.63;;;22.51;58.87
13974;BME280;7060;43.770;4.008;2023-08-24T03:09:37;100874.84;;;22.47;59.07
13974;BME280;7060;43.770;4.008;2023-08-24T03:12:07;100872.56;;;22.44;59.30
13974;BME280;7060;43.770;4.008;2023-08-24T03:14:37;100871.09;;;22.41;59.08
13974;BME280;7060;43.770;4.008;2023-08-24T03:17:07;100880.13;;;22.42;59.01
13974;BME280;7060;43.770;4.008;2023-08-24T03:19:36;100868.78;;;22.45;58.51
13974;BME280;7060;43.770;4.008;2023-08-24T03:22:07;100877.56;;;22.47;58.44
13974;BME280;7060;43.770;4.008;2023-08-24T03:24:36;100874.22;;;22.45;58.44
13974;BME280;7060;43.770;4.008;2023-08-24T03:27:05;100874.63;;;22.48;58.67
13974;BME280;7060;43.770;4.008;2023-08-24T03:29:34;100870.44;;;22.46;58.44
13974;BME280;7060;43.770;4.008;2023-08-24T03:32:03;100869.44;;;22.40;58.49
13974;BME280;7060;43.770;4.008;2023-08-24T03:34:32;100874.69;;;22.35;58.75
13974;BME280;7060;43.770;4.008;2023-08-24T03:37:01;100877.84;;;22.32;59.00
13974;BME280;7060;43.770;4.008;2023-08-24T03:39:31;100870.34;;;22.27;59.39
13974;BME280;7060;43.770;4.008;2023-08-24T03:42:00;100882.78;;;22.17;59.86
13974;BME280;7060;43.770;4.008;2023-08-24T03:44:29;100882.81;;;22.10;60.12
13974;BME280;7060;43.770;4.008;2023-08-24T03:46:57;100894.34;;;22.06;60.25
13974;BME280;7060;43.770;4.008;2023-08-24T03:49:26;100897.47;;;22.09;59.63
13974;BME280;7060;43.770;4.008;2023-08-24T03:51:56;100897.25;;;22.17;59.21
13974;BME280;7060;43.770;4.008;2023-08-24T03:54:26;100889.69;;;22.19;59.30
13974;BME280;7060;43.770;4.008;2023-08-24T03:56:56;100885.72;;;22.15;59.43
13974;BME280;7060;43.770;4.008;2023-08-24T03:59:25;100891.81;;;22.11;59.77
13974;BME280;7060;43.770;4.008;2023-08-24T04:01:54;100887.84;;;22.07;59.80
13974;BME280;7060;43.770;4.008;2023-08-24T04:04:23;100896.66;;;22.02;59.96
13974;BME280;7060;43.770;4.008;2023-08-24T04:06:52;100887.25;;;21.98;59.88
13974;BME280;7060;43.770;4.008;2023-08-24T04:09:21;100895.06;;;21.94;59.95
13974;BME280;7060;43.770;4.008;2023-08-24T04:11:52;100894.22;;;21.94;60.02
13974;BME280;7060;43.770;4.008;2023-08-24T04:14:22;100898.22;;;21.91;60.25
13974;BME280;7060;43.770;4.008;2023-08-24T04:16:51;100892.34;;;21.88;60.06
13974;BME280;7060;43.770;4.008;2023-08-24T04:19:20;100897.38;;;21.84;60.50
13974;BME280;7060;43.770;4.008;2023-08-24T04:21:49;100906.81;;;21.82;60.59
13974;BME280;7060;43.770;4.008;2023-08-24T04:24:18;100905.13;;;21.74;60.84
13974;BME280;7060;43.770;4.008;2023-08-24T04:26:47;100903.91;;;21.70;61.07
13974;BME280;7060;43.770;4.008;2023-08-24T04:29:15;100907.69;;;21.62;61.40
13974;BME280;7060;43.770;4.008;2023-08-24T04:31:46;100902.28;;;21.56;61.56
13974;BME280;7060;43.770;4.008;2023-08-24T04:34:15;100918.81;;;21.54;61.40
13974;BME280;7060;43.770;4.008;2023-08-24T04:36:44;100912.72;;;21.59;60.94
13974;BME280;7060;43.770;4.008;2023-08-24T04:39:13;100915.88;;;21.62;61.04
13974;BME280;7060;43.770;4.008;2023-08-24T04:41:42;100917.31;;;21.65;60.58
13974;BME280;7060;43.770;4.008;2023-08-24T04:44:11;100912.72;;;21.66;60.90
13974;BME280;7060;43.770;4.008;2023-08-24T04:46:42;100917.31;;;21.65;60.71
13974;BME280;7060;43.770;4.008;2023-08-24T04:49:12;100912.31;;;21.62;61.00
13974;BME280;7060;43.770;4.008;2023-08-24T04:51:41;100914.00;;;21.56;61.35
13974;BME280;7060;43.770;4.008;2023-08-24T04:54:11;100920.91;;;21.52;61.32
13974;BME280;7060;43.770;4.008;2023-08-24T04:56:40;100925.72;;;21.44;61.51
13974;BME280;7060;43.770;4.008;2023-08-24T04:59:09;100923.63;;;21.46;61.45
13974;BME280;7060;43.770;4.008;2023-08-24T05:01:38;100925.31;;;21.47;61.52
13974;BME280;7060;43.770;4.008;2023-08-24T05:04:06;100921.13;;;21.51;61.03
13974;BME280;7060;43.770;4.008;2023-08-24T05:06:38;100920.06;;;21.58;60.65
13974;BME280;7060;43.770;4.008;2023-08-24T05:09:06;100925.28;;;21.60;60.56
13974;BME280;7060;43.770;4.008;2023-08-24T05:11:36;100925.06;;;21.61;60.63
13974;BME280;7060;43.770;4.008;2023-08-24T05:14:05;100923.19;;;21.62;60.49
13974;BME280;7060;43.770;4.008;2023-08-24T05:16:34;100930.53;;;21.55;60.89
13974;BME280;7060;43.770;4.008;2023-08-24T05:19:02;100938.28;;;21.45;61.47
13974;BME280;7060;43.770;4.008;2023-08-24T05:21:32;100943.53;;;21.40;61.57
13974;BME280;7060;43.770;4.008;2023-08-24T05:24:02;100932.47;;;21.35;61.92
13974;BME280;7060;43.770;4.008;2023-08-24T05:26:32;100948.56;;;21.36;61.95
13974;BME280;7060;43.770;4.008;2023-08-24T05:29:01;100947.09;;;21.40;61.93
13974;BME280;7060;43.770;4.008;2023-08-24T05:31:30;100951.69;;;21.40;62.08
13974;BME280;7060;43.770;4.008;2023-08-24T05:33:59;100954.38;;;21.46;61.87
13974;BME280;7060;43.770;4.008;2023-08-24T05:36:28;100957.53;;;21.56;61.34
13974;BME280;7060;43.770;4.008;2023-08-24T05:38:57;100960.03;;;21.65;61.20
13974;BME280;7060;43.770;4.008;2023-08-24T05:41:33;100964.59;;;21.71;60.95
13974;BME280;7060;43.770;4.008;2023-08-24T05:44:04;100940.34;;;21.62;60.77
13974;BME280;7060;43.770;4.008;2023-08-24T05:46:33;100958.72;;;21.87;60.70
13974;BME280;7060;43.770;4.008;2023-08-24T05:49:01;100973.16;;;21.94;60.46
13974;BME280;7060;43.770;4.008;2023-08-24T05:51:30;100974.56;;;22.03;60.37
13974;BME280;7060;43.770;4.008;2023-08-24T05:54:00;100954.91;;;22.01;59.95
13974;BME280;7060;43.770;4.008;2023-08-24T05:56:29;100985.56;;;22.28;59.95
13974;BME280;7060;43.770;4.008;2023-08-24T05:58:59;100987.41;;;22.41;59.29
13974;BME280;7060;43.770;4.008;2023-08-24T06:01:32;100987.78;;;22.51;59.65
13974;BME280;7060;43.770;4.008;2023-08-24T06:04:01;100987.09;;;22.62;59.37
13974;BME280;7060;43.770;4.008;2023-08-24T06:06:30;100985.59;;;22.73;58.84
13974;BME280;7060;43.770;4.008;2023-08-24T06:08:58;100995.97;;;22.82;59.23
13974;BME280;7060;43.770;4.008;2023-08-24T06:11:27;100996.75;;;22.96;58.85
13974;BME280;7060;43.770;4.008;2023-08-24T06:13:59;100994.91;;;23.15;58.64
13974;BME280;7060;43.770;4.008;2023-08-24T06:16:28;100994.84;;;23.28;57.92
13974;BME280;7060;43.770;4.008;2023-08-24T06:18:57;100999.56;;;23.39;57.55
13974;BME280;7060;43.770;4.008;2023-08-24T06:21:26;100996.09;;;23.50;57.62
13974;BME280;7060;43.770;4.008;2023-08-24T06:23:55;100996.66;;;23.59;57.61
13974;BME280;7060;43.770;4.008;2023-08-24T06:26:24;100987.94;;;23.69;57.77
13974;BME280;7060;43.770;4.008;2023-08-24T06:28:53;100995.53;;;23.85;57.51
13974;BME280;7060;43.770;4.008;2023-08-24T06:31:24;101003.47;;;24.11;57.15
13974;BME280;7060;43.770;4.008;2023-08-24T06:33:53;101000.19;;;24.51;56.64
13974;BME280;7060;43.770;4.008;2023-08-24T06:36:22;100996.47;;;24.93;55.58
13974;BME280;7060;43.770;4.008;2023-08-24T06:38:51;101003.94;;;25.40;54.10
13974;BME280;7060;43.770;4.008;2023-08-24T06:41:19;101000.94;;;25.88;52.83
13974;BME280;7060;43.770;4.008;2023-08-24T06:43:48;100989.91;;;26.35;52.31
13974;BME280;7060;43.770;4.008;2023-08-24T06:46:17;100995.72;;;26.95;50.67
13974;BME280;7060;43.770;4.008;2023-08-24T06:48:48;100998.56;;;27.50;49.26
13974;BME280;7060;43.770;4.008;2023-08-24T06:51:16;100992.81;;;28.07;48.62
13974;BME280;7060;43.770;4.008;2023-08-24T06:53:46;100995.09;;;28.59;47.22
13974;BME280;7060;43.770;4.008;2023-08-24T06:56:16;100979.63;;;29.07;45.76
13974;BME280;7060;43.770;4.008;2023-08-24T06:58:45;100982.97;;;29.51;45.47
13974;BME280;7060;43.770;4.008;2023-08-24T07:01:14;100989.88;;;29.95;43.82
13974;BME280;7060;43.770;4.008;2023-08-24T07:03:43;100984.28;;;30.38;43.15
13974;BME280;7060;43.770;4.008;2023-08-24T07:06:14;100993.22;;;30.75;42.23
13974;BME280;7060;43.770;4.008;2023-08-24T07:08:43;100988.84;;;31.15;41.50
13974;BME280;7060;43.770;4.008;2023-08-24T07:11:12;100994.31;;;31.60;40.90
13974;BME280;7060;43.770;4.008;2023-08-24T07:13:42;100988.44;;;32.03;40.13
13974;BME280;7060;43.770;4.008;2023-08-24T07:16:11;100985.22;;;32.45;39.35
13974;BME280;7060;43.770;4.008;2023-08-24T07:18:40;100982.78;;;32.77;38.34
13974;BME280;7060;43.770;4.008;2023-08-24T07:21:09;100989.72;;;33.14;37.87
13974;BME280;7060;43.770;4.008;2023-08-24T07:23:41;100986.06;;;33.52;37.25
13974;BME280;7060;43.770;4.008;2023-08-24T07:26:10;100984.00;;;33.92;36.00
13974;BME280;7060;43.770;4.008;2023-08-24T07:28:39;100974.44;;;34.22;35.28
13974;BME280;7060;43.770;4.008;2023-08-24T07:31:08;100950.69;;;34.35;34.99
13974;BME280;7060;43.770;4.008;2023-08-24T07:33:38;100980.50;;;34.67;33.99
13974;BME280;7060;43.770;4.008;2023-08-24T07:36:07;100977.34;;;34.73;33.58
13974;BME280;7060;43.770;4.008;2023-08-24T07:38:36;100988.66;;;34.58;33.71
13974;BME280;7060;43.770;4.008;2023-08-24T07:41:06;100980.44;;;34.53;33.83
13974;BME280;7060;43.770;4.008;2023-08-24T07:43:36;100977.50;;;34.44;33.74
13974;BME280;7060;43.770;4.008;2023-08-24T07:46:05;100978.06;;;34.22;34.13
13974;BME280;7060;43.770;4.008;2023-08-24T07:48:35;100976.22;;;34.13;34.52
13974;BME280;7060;43.770;4.008;2023-08-24T07:51:04;100974.41;;;34.03;34.27
13974;BME280;7060;43.770;4.008;2023-08-24T07:53:34;100981.16;;;33.97;33.99
13974;BME280;7060;43.770;4.008;2023-08-24T07:56:03;100968.88;;;33.79;34.05
13974;BME280;7060;43.770;4.008;2023-08-24T07:58:33;100966.44;;;33.73;34.44
13974;BME280;7060;43.770;4.008;2023-08-24T08:01:02;100963.13;;;33.71;34.76
13974;BME280;7060;43.770;4.008;2023-08-24T08:03:32;100966.50;;;33.68;34.55
13974;BME280;7060;43.770;4.008;2023-08-24T08:06:03;100976.56;;;33.58;34.74
13974;BME280;7060;43.770;4.008;2023-08-24T08:08:33;100974.19;;;33.47;34.18
13974;BME280;7060;43.770;4.008;2023-08-24T08:11:02;100954.38;;;33.35;34.03
13974;BME280;7060;43.770;4.008;2023-08-24T08:13:32;100968.88;;;33.50;33.92
13974;BME280;7060;43.770;4.008;2023-08-24T08:16:01;100965.47;;;33.58;33.91
13974;BME280;7060;43.770;4.008;2023-08-24T08:18:32;100945.31;;;33.53;32.53
13974;BME280;7060;43.770;4.008;2023-08-24T08:21:03;100967.38;;;33.63;32.78
13974;BME280;7060;43.770;4.008;2023-08-24T08:23:37;100966.25;;;33.64;32.87
13974;BME280;7060;43.770;4.008;2023-08-24T08:26:07;100965.97;;;33.66;32.48
13974;BME280;7060;43.770;4.008;2023-08-24T08:28:40;100947.19;;;33.57;32.54
13974;BME280;7060;43.770;4.008;2023-08-24T08:31:08;100959.31;;;33.67;32.41
13974;BME280;7060;43.770;4.008;2023-08-24T08:33:37;100945.91;;;33.74;32.38
13974;BME280;7060;43.770;4.008;2023-08-24T08:36:06;100948.63;;;33.79;30.70
13974;BME280;7060;43.770;4.008;2023-08-24T08:38:35;100952.78;;;33.81;31.25
13974;BME280;7060;43.770;4.008;2023-08-24T08:41:04;100948.03;;;33.82;31.37
13974;BME280;7060;43.770;4.008;2023-08-24T08:43:33;100939.72;;;33.82;31.95
13974;BME280;7060;43.770;4.008;2023-08-24T08:46:04;100954.97;;;34.03;31.46
13974;BME280;7060;43.770;4.008;2023-08-24T08:48:36;100946.97;;;34.02;31.70
13974;BME280;7060;43.770;4.008;2023-08-24T08:51:05;100944.59;;;34.14;32.28
13974;BME280;7060;43.770;4.008;2023-08-24T08:53:34;100939.13;;;34.27;31.88
13974;BME280;7060;43.770;4.008;2023-08-24T08:56:03;100941.94;;;34.46;31.59
13974;BME280;7060;43.770;4.008;2023-08-24T08:58:33;100944.38;;;34.67;30.14
13974;BME280;7060;43.770;4.008;2023-08-24T09:01:05;100945.03;;;34.82;29.94
13974;BME280;7060;43.770;4.008;2023-08-24T09:03:37;100936.19;;;34.94;30.57
13974;BME280;7060;43.770;4.008;2023-08-24T09:06:07;100946.53;;;35.07;30.46
13974;BME280;7060;43.770;4.008;2023-08-24T09:08:37;100952.19;;;35.16;30.38
13974;BME280;7060;43.770;4.008;2023-08-24T09:11:06;100949.19;;;35.31;30.79
13974;BME280;7060;43.770;4.008;2023-08-24T09:13:37;100947.97;;;35.51;30.17
13974;BME280;7060;43.770;4.008;2023-08-24T09:16:07;100951.06;;;35.63;29.69
13974;BME280;7060;43.770;4.008;2023-08-24T09:18:44;100947.44;;;35.49;29.28
13974;BME280;7060;43.770;4.008;2023-08-24T09:21:15;100948.69;;;35.56;29.46
13974;BME280;7060;43.770;4.008;2023-08-24T09:23:44;100941.25;;;35.66;29.70
13974;BME280;7060;43.770;4.008;2023-08-24T09:26:15;100940.88;;;35.72;28.54
13974;BME280;7060;43.770;4.008;2023-08-24T09:28:43;100951.00;;;35.82;29.14
13974;BME280;7060;43.770;4.008;2023-08-24T09:31:14;100943.06;;;35.89;28.52
13974;BME280;7060;43.770;4.008;2023-08-24T09:33:43;100944.59;;;35.95;28.35
13974;BME280;7060;43.770;4.008;2023-08-24T09:36:14;100940.56;;;36.01;27.83
13974;BME280;7060;43.770;4.008;2023-08-24T09:38:46;100945.41;;;36.09;27.82
13974;BME280;7060;43.770;4.008;2023-08-24T09:41:16;100939.09;;;36.17;27.54
13974;BME280;7060;43.770;4.008;2023-08-24T09:43:45;100937.97;;;36.18;27.54
13974;BME280;7060;43.770;4.008;2023-08-24T09:46:18;100931.38;;;36.14;27.87
13974;BME280;7060;43.770;4.008;2023-08-24T09:48:53;100940.66;;;36.23;27.77
13974;BME280;7060;43.770;4.008;2023-08-24T09:51:26;100933.94;;;36.24;27.79
13974;BME280;7060;43.770;4.008;2023-08-24T09:53:57;100933.41;;;36.36;27.30
13974;BME280;7060;43.770;4.008;2023-08-24T09:56:28;100928.25;;;36.43;27.30
13974;BME280;7060;43.770;4.008;2023-08-24T09:59:00;100930.06;;;36.48;27.51
13974;BME280;7060;43.770;4.008;2023-08-24T10:01:34;100930.44;;;36.55;26.46
13974;BME280;7060;43.770;4.008;2023-08-24T10:04:05;100926.31;;;36.66;26.97
13974;BME280;7060;43.770;4.008;2023-08-24T10:06:36;100927.06;;;36.80;26.13
13974;BME280;7060;43.770;4.008;2023-08-24T10:09:08;100924.84;;;36.91;25.83
13974;BME280;7060;43.770;4.008;2023-08-24T10:11:43;100927.50;;;36.96;25.32
13974;BME280;7060;43.770;4.008;2023-08-24T10:14:19;100921.00;;;37.01;24.98
13974;BME280;7060;43.770;4.008;2023-08-24T10:16:52;100922.38;;;37.12;25.18
13974;BME280;7060;43.770;4.008;2023-08-24T10:19:23;100923.44;;;37.24;24.86
13974;BME280;7060;43.770;4.008;2023-08-24T10:21:53;100913.31;;;37.37;24.68
13974;BME280;7060;43.770;4.008;2023-08-24T10:24:24;100918.63;;;37.47;24.88
13974;BME280;7060;43.770;4.008;2023-08-24T10:26:54;100914.28;;;37.64;24.62
13974;BME280;7060;43.770;4.008;2023-08-24T10:29:23;100903.66;;;37.74;24.45
13974;BME280;7060;43.770;4.008;2023-08-24T10:31:56;100922.88;;;37.93;24.22
13974;BME280;7060;43.770;4.008;2023-08-24T10:34:26;100914.84;;;38.00;24.11
13974;BME280;7060;43.770;4.008;2023-08-24T10:36:55;100915.72;;;38.01;23.84
13974;BME280;7060;43.770;4.008;2023-08-24T10:39:27;100916.06;;;38.08;23.77
13974;BME280;7060;43.770;4.008;2023-08-24T10:42:00;100901.91;;;38.13;23.77
13974;BME280;7060;43.770;4.008;2023-08-24T10:44:34;100906.53;;;38.26;23.52
13974;BME280;7060;43.770;4.008;2023-08-24T10:47:11;100911.16;;;38.31;23.15
13974;BME280;7060;43.770;4.008;2023-08-24T10:49:41;100905.53;;;38.39;23.75
13974;BME280;7060;43.770;4.008;2023-08-24T10:52:17;100908.88;;;38.50;22.82
13974;BME280;7060;43.770;4.008;2023-08-24T10:54:47;100905.09;;;38.54;22.75
13974;BME280;7060;43.770;4.008;2023-08-24T10:57:21;100907.56;;;38.56;22.76
13974;BME280;7060;43.770;4.008;2023-08-24T11:00:04;100898.34;;;38.55;23.18
13974;BME280;7060;43.770;4.008;2023-08-24T11:02:46;100905.59;;;38.65;23.17
13974;BME280;7060;43.770;4.008;2023-08-24T11:05:18;100905.09;;;38.63;23.60
13974;BME280;7060;43.770;4.008;2023-08-24T11:07:53;100888.47;;;38.67;23.53
13974;BME280;7060;43.770;4.008;2023-08-24T11:10:24;100903.91;;;38.81;23.79
13974;BME280;7060;43.770;4.008;2023-08-24T11:13:11;100893.91;;;38.89;24.00
13974;BME280;7060;43.770;4.008;2023-08-24T11:15:42;100891.38;;;38.96;23.79
13974;BME280;7060;43.770;4.008;2023-08-24T11:18:14;100893.34;;;38.96;23.43
13974;BME280;7060;43.770;4.008;2023-08-24T11:20:43;100894.00;;;39.01;23.88
13974;BME280;7060;43.770;4.008;2023-08-24T11:23:12;100894.63;;;39.15;22.68
13974;BME280;7060;43.770;4.008;2023-08-24T11:25:45;100893.63;;;39.20;21.72
13974;BME280;7060;43.770;4.008;2023-08-24T11:28:17;100892.47;;;39.21;22.01
13974;BME280;7060;43.770;4.008;2023-08-24T11:30:47;100892.31;;;39.17;22.43
13974;BME280;7060;43.770;4.008;2023-08-24T11:33:28;100888.88;;;39.12;21.86
13974;BME280;7060;43.770;4.008;2023-08-24T11:35:58;100889.06;;;39.07;22.34
13974;BME280;7060;43.770;4.008;2023-08-24T11:42:43;100889.19;;;39.19;22.85
13974;BME280;7060;43.770;4.008;2023-08-24T11:45:12;100890.28;;;39.26;22.83
13974;BME280;7060;43.770;4.008;2023-08-24T11:47:42;100882.41;;;39.29;22.62
13974;BME280;7060;43.770;4.008;2023-08-24T11:50:13;100889.81;;;39.33;22.28
13974;BME280;7060;43.770;4.008;2023-08-24T11:52:43;100886.00;;;39.38;23.00
13974;BME280;7060;43.770;4.008;2023-08-24T11:55:12;100891.56;;;39.46;23.10
13974;BME280;7060;43.770;4.008;2023-08-24T11:57:42;100885.91;;;39.55;23.07
13974;BME280;7060;43.770;4.008;2023-08-24T12:00:12;100876.81;;;39.67;22.31
13974;BME280;7060;43.770;4.008;2023-08-24T12:02:45;100873.19;;;39.75;22.22
13974;BME280;7060;43.770;4.008;2023-08-24T12:05:25;100876.97;;;39.70;22.70
13974;BME280;7060;43.770;4.008;2023-08-24T12:07:55;100877.28;;;39.69;22.31
13974;BME280;7060;43.770;4.008;2023-08-24T12:10:24;100866.91;;;39.69;22.31
13974;BME280;7060;43.770;4.008;2023-08-24T12:13:01;100872.19;;;39.71;21.96
13974;BME280;7060;43.770;4.008;2023-08-24T12:15:31;100869.38;;;39.71;22.59
13974;BME280;7060;43.770;4.008;2023-08-24T12:18:09;100860.50;;;39.69;21.94
13974;BME280;7060;43.770;4.008;2023-08-24T12:20:41;100861.81;;;39.71;21.84
13974;BME280;7060;43.770;4.008;2023-08-24T12:23:10;100854.13;;;39.59;22.43
13974;BME280;7060;43.770;4.008;2023-08-24T12:25:42;100853.97;;;39.56;21.77
13974;BME280;7060;43.770;4.008;2023-08-24T12:28:12;100847.91;;;39.54;21.27
13974;BME280;7060;43.770;4.008;2023-08-24T12:30:46;100836.91;;;39.49;21.98
13974;BME280;7060;43.770;4.008;2023-08-24T12:33:26;100847.41;;;39.52;23.05
13974;BME280;7060;43.770;4.008;2023-08-24T12:35:57;100852.13;;;39.39;23.32
13974;BME280;7060;43.770;4.008;2023-08-24T12:38:27;100856.03;;;39.47;23.26
13974;BME280;7060;43.770;4.008;2023-08-24T12:40:56;100852.69;;;39.53;22.50
13974;BME280;7060;43.770;4.008;2023-08-24T12:43:25;100849.22;;;39.56;20.86
13974;BME280;7060;43.770;4.008;2023-08-24T12:45:54;100859.56;;;39.56;21.28
13974;BME280;7060;43.770;4.008;2023-08-24T12:48:22;100853.84;;;39.52;21.74
13974;BME280;7060;43.770;4.008;2023-08-24T12:50:51;100853.84;;;39.52;21.08
13974;BME280;7060;43.770;4.008;2023-08-24T12:53:22;100846.59;;;39.51;21.35
13974;BME280;7060;43.770;4.008;2023-08-24T12:55:50;100840.47;;;39.58;21.44
13974;BME280;7060;43.770;4.008;2023-08-24T12:58:19;100845.69;;;39.68;21.59
13974;BME280;7060;43.770;4.008;2023-08-24T13:00:49;100841.00;;;39.81;22.18
13974;BME280;7060;43.770;4.008;2023-08-24T13:03:18;100847.22;;;39.86;22.21
13974;BME280;7060;43.770;4.008;2023-08-24T13:05:47;100837.00;;;39.90;22.47
13974;BME280;7060;43.770;4.008;2023-08-24T13:08:16;100842.41;;;39.96;21.86
13974;BME280;7060;43.770;4.008;2023-08-24T13:10:47;100833.66;;;39.97;21.95
13974;BME280;7060;43.770;4.008;2023-08-24T13:13:16;100834.13;;;39.99;22.07
13974;BME280;7060;43.770;4.008;2023-08-24T13:15:49;100833.56;;;40.06;22.20
13974;BME280;7060;43.770;4.008;2023-08-24T13:18:21;100823.53;;;40.05;21.99
13974;BME280;7060;43.770;4.008;2023-08-24T13:20:49;100831.47;;;40.03;21.72
13974;BME280;7060;43.770;4.008;2023-08-24T13:23:18;100831.25;;;40.08;21.53
13974;BME280;7060;43.770;4.008;2023-08-24T13:25:49;100825.09;;;40.14;21.98
13974;BME280;7060;43.770;4.008;2023-08-24T13:28:18;100827.72;;;40.19;22.08